Burns Municipal Airport
KBNO : now visible

Airfield :











YOU CAN JOIN US ON...

 
LOGIN :

Register | Disclaimer

   EN    FR    IT 

 









Legend :    VFR   Marginal VFR   IFR   Intensive IFR   Very Intensive IFR
Visi :
Ceiling :
>= 8 km
>= 3000ft
5 to 8 km
1000 to 3000 ft
1500m to 5 km
500 to 1000 ft
800 to 1500m
200 to 500 ft
< 800m
< 200 ft
Symbols :   Thunderstorms  Fog  Heavy snow  Heavy precipitations  Wind > 20 kt







- Airport Elevation : 4148 ft


KBNO - Burns Municipal

CURRENT METAR :
  • 162053Z AUTO 23008KT 10SM -RA OVC060 11/07 A2989 RMK AO2 SLP112 P0001 60001 T01060067 53007 $

EXPIRED METARs :
  • 161953Z AUTO 25009KT 10SM -RA FEW042 BKN050 OVC070 11/06 A2988 RMK AO2 RAB14 SLP106 P0000 T01060056
  • 161853Z AUTO 22010KT 10SM BKN035 BKN050 OVC100 12/04 A2988 RMK AO2 RAE52 SLP102 P0000 T01170039

TAF KBNO
Valid from the 16 at 18:00 until the 17 at 18:00 UTC


161731Z 1618/1718 30012KT P6SM VCSH BKN040 OVC100
TEMPO 1620/1624 -SHRA BKN025 OVC050
FM170200 27008KT P6SM SCT050 BKN080
FM170800 24005KT P6SM SCT100
No reported NOTAMs for that airfield.



MET'MAP, your aeronautical weather chart ! - Copyright ORBIFLY December 2007 - Disclaimer

ORBIFLY MET'MAP TEAM :

Programming & Development : Alexandra Zaïnal
Concept & Development : Baudouin d'Aumeries
Co-Development & Prog : Marc-Olivier Méhu
Technical & hardware support : Manuel Goepfert

Contact : metmap@orbifly.com




SOURCES & CREDITS :

   NOAA       Earth
Advisory